Time;durP1;ratioP1;P1;durP2;ratioP2;P2;SDS_P1;SDS_P2;PMS_P1;PMS_P2;Temp;Humidity;BMP_temperature;BMP_pressure;BME280_temperature;BME280_humidity;BME280_pressure;Samples;Min_cycle;Max_cycle;Signal;HPM_P1;HPM_P2
2021/09/28 00:06:16;;;;;;;1.40;1.00;;;19.70;99.90;;;;;;20503744;28;20344;-74
2021/09/28 00:16:20;;;;;;;2.50;1.20;;;19.70;99.90;;;;;;20506105;28;20209;-73
2021/09/28 00:26:25;;;;;;;1.53;0.53;;;19.70;99.90;;;;;;20535940;28;20239;-73
2021/09/28 00:36:28;;;;;;;0.20;0.20;;;19.70;99.90;;;;;;20525797;28;20275;-72
2021/09/28 00:46:33;;;;;;;0.20;0.10;;;19.60;99.90;;;;;;20504365;28;20645;-71
2021/09/28 00:56:37;;;;;;;0.53;0.53;;;19.70;99.90;;;;;;20503503;28;20244;-73
2021/09/28 01:06:42;;;;;;;1.60;1.10;;;19.60;99.90;;;;;;20502681;28;20350;-72
2021/09/28 01:16:46;;;;;;;1.23;0.40;;;19.60;99.90;;;;;;20500136;28;20196;-73
2021/09/28 01:26:51;;;;;;;0.80;0.80;;;19.60;99.90;;;;;;20533912;28;20242;-73
2021/09/28 01:36:54;;;;;;;2.20;0.63;;;19.50;99.90;;;;;;20534944;28;20287;-74
2021/09/28 01:46:59;;;;;;;2.23;0.73;;;19.50;99.90;;;;;;20481863;28;20228;-74
2021/09/28 01:57:03;;;;;;;0.23;0.17;;;19.40;99.90;;;;;;20499025;28;20199;-73
2021/09/28 02:07:08;;;;;;;0.60;0.40;;;19.40;99.90;;;;;;20498035;28;20680;-73
2021/09/28 02:17:13;;;;;;;1.80;0.87;;;19.40;99.90;;;;;;20497060;28;20216;-74
2021/09/28 02:27:18;;;;;;;1.23;0.60;;;19.30;99.90;;;;;;20534137;28;20577;-74
2021/09/28 02:37:22;;;;;;;0.70;0.33;;;19.30;99.90;;;;;;20525412;28;20291;-72
2021/09/28 02:47:27;;;;;;;0.30;0.30;;;19.20;99.90;;;;;;20494369;28;20221;-72
2021/09/28 02:57:31;;;;;;;0.53;0.47;;;19.20;99.90;;;;;;20493230;28;20197;-71
2021/09/28 03:07:36;;;;;;;0.93;0.53;;;19.10;99.90;;;;;;20493880;28;20960;-72
2021/09/28 03:17:39;;;;;;;2.57;1.13;;;19.20;99.90;;;;;;20493020;28;20193;-72
2021/09/28 03:27:46;;;;;;;4.47;1.70;;;19.00;99.90;;;;;;20534393;28;20609;-72
2021/09/28 03:37:52;;;;;;;0.40;0.40;;;19.00;99.90;;;;;;20526961;28;20189;-74
2021/09/28 03:47:57;;;;;;;3.83;1.90;;;19.00;99.90;;;;;;20508244;28;20239;-73
2021/09/28 03:58:01;;;;;;;0.67;0.63;;;19.10;99.90;;;;;;20507478;28;20515;-74
2021/09/28 04:08:07;;;;;;;1.40;1.30;;;19.30;99.90;;;;;;20507780;28;20241;-73
2021/09/28 04:18:12;;;;;;;0.70;0.37;;;19.40;99.90;;;;;;20505482;28;20284;-73
2021/09/28 04:28:17;;;;;;;0.33;0.33;;;19.40;99.90;;;;;;20550812;28;20573;-73
2021/09/28 04:38:21;;;;;;;1.07;1.00;;;19.50;99.90;;;;;;20526677;28;20203;-73
2021/09/28 04:48:26;;;;;;;4.27;2.10;;;19.60;99.90;;;;;;20501995;28;20251;-73
2021/09/28 04:58:29;;;;;;;0.73;0.73;;;19.80;99.90;;;;;;20497976;28;20213;-73
2021/09/28 05:08:35;;;;;;;0.67;0.67;;;19.80;99.90;;;;;;20500593;28;20255;-73
2021/09/28 05:18:38;;;;;;;1.00;0.87;;;19.90;99.90;;;;;;20500728;28;20215;-74
2021/09/28 05:28:43;;;;;;;0.70;0.70;;;19.90;99.90;;;;;;20548722;28;20318;-73
2021/09/28 05:38:47;;;;;;;1.03;0.93;;;19.90;99.90;;;;;;20561151;28;20204;-75
2021/09/28 05:48:52;;;;;;;1.17;1.07;;;19.80;99.90;;;;;;20576924;28;20638;-72
2021/09/28 05:58:55;;;;;;;1.43;1.33;;;19.90;99.90;;;;;;20571683;28;20218;-65
2021/09/28 06:09:01;;;;;;;0.60;0.60;;;20.00;99.90;;;;;;20565288;28;20370;-73
2021/09/28 06:19:04;;;;;;;1.67;0.50;;;19.90;99.90;;;;;;20571705;28;20188;-74
2021/09/28 06:29:09;;;;;;;2.00;0.70;;;20.00;99.90;;;;;;20519914;28;20739;-75
2021/09/28 06:39:13;;;;;;;0.27;0.27;;;20.10;99.90;;;;;;20474851;29;20189;-74
2021/09/28 06:49:18;;;;;;;0.40;0.40;;;20.50;99.90;;;;;;20491222;28;20311;-69
2021/09/28 06:59:21;;;;;;;0.90;0.60;;;20.70;99.90;;;;;;20505398;28;20320;-70
2021/09/28 07:09:29;;;;;;;0.20;0.10;;;20.90;99.90;;;;;;20491202;28;20216;-70
2021/09/28 07:19:33;;;;;;;0.47;0.40;;;21.30;99.90;;;;;;20489674;28;20200;-69
2021/09/28 07:29:40;;;;;;;0.80;0.63;;;22.00;99.90;;;;;;20547762;28;20258;-71
2021/09/28 07:39:44;;;;;;;0.88;0.45;;;22.70;99.90;;;;;;20492071;28;20205;-72
2021/09/28 07:49:50;;;;;;;0.43;0.43;;;23.00;99.90;;;;;;20489676;28;20319;-72
2021/09/28 07:59:54;;;;;;;0.20;0.10;;;23.20;99.90;;;;;;20470435;28;20965;-73
2021/09/28 08:10:03;;;;;;;0.55;0.40;;;23.40;99.90;;;;;;20489401;28;20240;-74
2021/09/28 08:20:16;;;;;;;0.43;0.43;;;23.40;99.90;;;;;;20490203;28;20650;-71
2021/09/28 08:30:21;;;;;;;0.82;0.82;;;23.60;99.90;;;;;;20500903;28;20251;-77
2021/09/28 08:40:25;;;;;;;0.73;0.60;;;23.90;99.90;;;;;;20503249;28;20225;-75
2021/09/28 08:50:30;;;;;;;2.95;0.68;;;24.00;99.90;;;;;;20435980;28;20586;-75
2021/09/28 09:00:34;;;;;;;2.28;1.48;;;24.20;99.90;;;;;;20418137;29;20231;-78
2021/09/28 09:10:39;;;;;;;0.40;0.10;;;24.70;99.90;;;;;;20416762;29;20589;-75
2021/09/28 09:20:44;;;;;;;1.60;0.88;;;24.70;99.90;;;;;;20434317;28;20567;-76
2021/09/28 09:30:49;;;;;;;1.20;0.52;;;25.00;99.90;;;;;;20564020;28;20312;-76
2021/09/28 09:40:53;;;;;;;2.30;0.85;;;25.30;99.90;;;;;;20577589;28;20534;-76
2021/09/28 09:51:07;;;;;;;7.88;3.28;;;25.70;99.90;;;;;;20559275;28;20232;-77
2021/09/28 10:01:11;;;;;;;2.15;0.95;;;26.10;99.90;;;;;;20577656;28;20220;-78
2021/09/28 10:11:16;;;;;;;1.48;1.33;;;25.80;99.90;;;;;;20575073;28;20306;-76
2021/09/28 10:21:38;;;;;;;1.23;0.75;;;26.60;99.90;;;;;;20538508;28;20197;-77
2021/09/28 10:31:43;;;;;;;0.55;0.52;;;26.80;99.90;;;;;;20568800;28;20234;-82
2021/09/28 10:41:50;;;;;;;0.98;0.50;;;27.00;99.90;;;;;;20575368;28;20721;-85
2021/09/28 10:52:34;;;;;;;1.02;0.77;;;26.50;99.90;;;;;;20557080;28;20752;-83
2021/09/28 11:02:52;;;;;;;0.47;0.30;;;26.80;99.90;;;;;;20573966;28;20267;-75
2021/09/28 11:12:58;;;;;;;1.55;1.45;;;27.20;99.90;;;;;;20570901;28;20275;-79
2021/09/28 11:23:07;;;;;;;1.85;1.63;;;27.50;99.90;;;;;;20528874;28;20307;-77
2021/09/28 11:33:12;;;;;;;1.63;0.93;;;27.30;99.90;;;;;;20461085;28;20266;-77
2021/09/28 11:43:19;;;;;;;1.20;0.93;;;27.50;99.90;;;;;;20470726;28;20617;-78
2021/09/28 11:53:24;;;;;;;0.55;0.55;;;28.20;99.90;;;;;;20488387;28;20231;-75
2021/09/28 12:03:28;;;;;;;1.25;1.08;;;28.20;99.90;;;;;;20498789;28;20256;-73
2021/09/28 12:13:33;;;;;;;1.00;0.73;;;28.70;99.90;;;;;;20503049;28;20320;-74
2021/09/28 12:23:37;;;;;;;0.40;0.40;;;28.00;99.90;;;;;;20508643;28;20228;-74
2021/09/28 12:33:44;;;;;;;2.15;1.08;;;29.00;99.90;;;;;;20572585;28;20350;-77
2021/09/28 12:43:48;;;;;;;0.32;0.32;;;28.50;99.90;;;;;;20557849;28;20208;-78
2021/09/28 12:53:54;;;;;;;7.13;0.73;;;29.10;99.90;;;;;;20561911;28;20255;-76
2021/09/28 13:03:58;;;;;;;1.60;0.70;;;28.90;99.90;;;;;;20580289;28;20334;-73
2021/09/28 13:14:03;;;;;;;1.30;1.00;;;28.90;99.90;;;;;;20579256;28;20250;-74
2021/09/28 13:24:07;;;;;;;0.82;0.70;;;29.60;99.90;;;;;;20546218;28;20287;-75
2021/09/28 13:34:16;;;;;;;3.17;0.88;;;29.80;99.90;;;;;;20575521;28;20240;-76
2021/09/28 13:44:20;;;;;;;3.72;1.08;;;29.50;99.90;;;;;;20558218;28;20204;-75
2021/09/28 13:54:25;;;;;;;0.82;0.43;;;29.70;99.90;;;;;;20575455;28;20261;-80
2021/09/28 14:04:29;;;;;;;0.75;0.75;;;29.80;99.90;;;;;;20573227;28;20224;-77
2021/09/28 14:14:35;;;;;;;0.80;0.80;;;29.80;99.90;;;;;;20573594;28;20292;-75
2021/09/28 14:24:38;;;;;;;0.68;0.68;;;30.00;99.90;;;;;;20540622;28;20210;-78
2021/09/28 14:34:44;;;;;;;0.88;0.45;;;29.70;99.90;;;;;;20569655;28;20642;-80
2021/09/28 14:44:48;;;;;;;0.30;0.28;;;29.60;99.90;;;;;;20569457;28;20538;-79
2021/09/28 14:54:53;;;;;;;4.68;0.60;;;28.70;99.90;;;;;;20573170;28;20231;-80
2021/09/28 15:04:57;;;;;;;0.30;0.20;;;27.00;99.90;;;;;;20554378;28;21025;-75
2021/09/28 15:15:02;;;;;;;0.20;0.15;;;26.60;99.90;;;;;;20569888;28;20318;-74
2021/09/28 15:25:08;;;;;;;1.05;0.55;;;26.60;99.90;;;;;;20538827;28;20206;-73
2021/09/28 15:35:14;;;;;;;0.40;0.20;;;26.30;99.90;;;;;;20560022;28;20290;-76
2021/09/28 15:45:21;;;;;;;2.10;0.95;;;25.80;99.90;;;;;;20587090;28;20279;-79
2021/09/28 15:55:26;;;;;;;0.25;0.20;;;25.80;99.90;;;;;;20537670;28;20207;-74
2021/09/28 16:05:29;;;;;;;0.20;0.20;;;25.60;99.90;;;;;;20495494;28;20336;-82
2021/09/28 16:15:34;;;;;;;0.40;0.30;;;25.40;99.90;;;;;;20460725;28;20232;-75
2021/09/28 16:25:38;;;;;;;0.20;0.10;;;25.00;99.90;;;;;;20518102;28;20204;-81
2021/09/28 16:35:43;;;;;;;0.47;0.45;;;24.60;99.90;;;;;;20581782;28;20618;-78
2021/09/28 16:45:47;;;;;;;0.20;0.10;;;24.60;99.90;;;;;;20562879;28;20696;-75
2021/09/28 16:55:53;;;;;;;3.17;1.73;;;24.60;99.90;;;;;;20486242;28;20617;-77
2021/09/28 17:05:56;;;;;;;0.55;0.52;;;24.50;99.90;;;;;;20465821;28;20233;-75
2021/09/28 17:16:02;;;;;;;0.20;0.10;;;24.30;99.90;;;;;;20481699;28;20719;-76
2021/09/28 17:26:06;;;;;;;0.30;0.20;;;24.30;99.90;;;;;;20498448;28;20216;-72
2021/09/28 17:36:11;;;;;;;0.88;0.22;;;24.20;99.90;;;;;;20495145;28;20292;-70
2021/09/28 17:46:15;;;;;;;0.20;0.10;;;24.10;99.90;;;;;;20496161;28;20316;-73
2021/09/28 17:56:21;;;;;;;0.20;0.15;;;24.20;99.90;;;;;;20473812;28;20222;-73
2021/09/28 18:06:25;;;;;;;0.73;0.50;;;24.20;99.90;;;;;;20491958;28;20726;-74
2021/09/28 18:16:30;;;;;;;0.40;0.30;;;24.20;99.90;;;;;;20473069;28;20196;-76
2021/09/28 18:26:34;;;;;;;0.20;0.00;;;24.00;99.90;;;;;;20524438;28;20290;-75
2021/09/28 18:36:39;;;;;;;0.25;0.20;;;23.90;99.90;;;;;;20523345;28;20430;-74
2021/09/28 18:46:43;;;;;;;0.45;0.45;;;24.00;99.90;;;;;;20492146;28;20339;-71
2021/09/28 18:56:56;;;;;;;0.80;0.47;;;23.80;99.90;;;;;;20490634;28;20223;-73
2021/09/28 19:07:12;;;;;;;0.20;0.10;;;23.80;99.90;;;;;;20489216;28;20326;-74
2021/09/28 19:17:18;;;;;;;0.40;0.10;;;23.80;99.90;;;;;;20489768;28;20686;-75
2021/09/28 19:27:22;;;;;;;0.57;0.47;;;23.80;99.90;;;;;;20527831;28;20234;-73
2021/09/28 19:37:27;;;;;;;1.30;0.25;;;23.90;99.90;;;;;;20519751;28;20223;-74
2021/09/28 19:47:32;;;;;;;0.52;0.20;;;23.70;99.90;;;;;;20488766;28;20283;-72
2021/09/28 19:57:44;;;;;;;0.38;0.38;;;23.50;99.90;;;;;;20471912;28;20718;-74
2021/09/28 20:39:06;;;;;;;0.40;0.20;;;22.90;99.90;;;;;;20501491;28;20204;-68
2021/09/28 20:49:09;;;;;;;0.60;0.43;;;22.90;99.90;;;;;;20499956;28;20312;-73
2021/09/28 20:59:14;;;;;;;0.43;0.37;;;22.70;99.90;;;;;;20499399;28;20203;-73
2021/09/28 21:09:21;;;;;;;0.70;0.27;;;22.60;99.90;;;;;;20497915;28;20289;-73
2021/09/28 21:19:26;;;;;;;0.40;0.40;;;22.70;99.90;;;;;;20472802;28;20220;-72
2021/09/28 21:29:29;;;;;;;0.20;0.00;;;22.70;99.90;;;;;;20476372;28;21148;-77
2021/09/28 21:39:40;;;;;;;0.20;0.17;;;22.40;99.90;;;;;;20461919;28;20205;-73
2021/09/28 21:49:43;;;;;;;0.70;0.50;;;22.00;99.90;;;;;;20451619;28;20213;-75
2021/09/28 21:59:48;;;;;;;0.20;0.10;;;21.90;99.90;;;;;;20494435;28;20209;-75
2021/09/28 22:09:52;;;;;;;0.80;0.27;;;21.70;99.90;;;;;;20498467;28;20229;-73
2021/09/28 22:19:57;;;;;;;0.30;0.30;;;21.60;99.90;;;;;;20498008;28;20189;-73
2021/09/28 22:30:01;;;;;;;0.87;0.30;;;21.60;99.90;;;;;;20556538;28;20230;-74
2021/09/28 22:40:07;;;;;;;0.70;0.70;;;21.80;99.90;;;;;;20505059;28;20239;-75
2021/09/28 22:50:11;;;;;;;0.20;0.00;;;21.80;99.90;;;;;;20495400;28;20235;-75
2021/09/28 23:00:22;;;;;;;0.93;0.47;;;21.80;99.90;;;;;;20494379;28;20260;-75
2021/09/28 23:10:27;;;;;;;0.50;0.30;;;21.80;99.90;;;;;;20471083;28;20238;-75
2021/09/28 23:20:32;;;;;;;0.97;0.40;;;21.80;99.90;;;;;;20449619;28;20256;-75
2021/09/28 23:30:36;;;;;;;0.23;0.17;;;21.80;99.90;;;;;;20487203;28;20621;-75
2021/09/28 23:40:41;;;;;;;0.63;0.57;;;21.90;99.90;;;;;;20454942;28;20228;-73
2021/09/28 23:50:45;;;;;;;0.20;0.17;;;21.50;99.90;;;;;;20450873;28;20646;-75
